Observation data for Turkey on 11/13/2019      Previous  Date       Current Mesonet Observations  Soil Data  Daily Summary Page  Observations in Plain Language
KTUR 130600Z 18010KT 02/M10 A3015 RMK A01 T00201098  RH  042%=      5-min Rain = 0
KTUR 130605Z 18009KT 02/M10 A3015 RMK A01 T00211099  RH  041%=      5-min Rain = 0
KTUR 130610Z 18009KT 02/M10 A3015 RMK A01 T00201098  RH  042%=      5-min Rain = 0
KTUR 130615Z 17009KT 02/M10 A3014 RMK A01 T00211100  RH  041%=      5-min Rain = 0
KTUR 130620Z 17008KT 02/M10 A3014 RMK A01 T00201099  RH  041%=      5-min Rain = 0
KTUR 130625Z 17007KT 02/M10 A3014 RMK A01 T00191099  RH  042%=      5-min Rain = 0
KTUR 130630Z 18008KT 02/M10 A3014 RMK A01 T00191100  RH  042%=      5-min Rain = 0
KTUR 130635Z 18009KT 02/M10 A3013 RMK A01 T00171098  RH  042%=      5-min Rain = 0
KTUR 130640Z 19010KT 02/M10 A3013 RMK A01 T00171099  RH  042%=      5-min Rain = 0
KTUR 130645Z 19011KT 02/M10 A3013 RMK A01 T00171099  RH  042%=      5-min Rain = 0
KTUR 130650Z 19013KT 02/M10 A3012 RMK A01 T00181101  RH  041%=      5-min Rain = 0
KTUR 130655Z 19012G17KT 02/M10 A3012 RMK A01 T00191101  RH  041%=      5-min Rain = 0
KTUR 130700Z 19014G19KT 02/M10 A3012 RMK A01 T00191103  RH  040%=      5-min Rain = 0
KTUR 130705Z 19015G20KT 02/M10 A3011 RMK A01 T00201104  RH  040%=      5-min Rain = 0
KTUR 130710Z 19015KT 02/M11 A3011 RMK A01 T00211105  RH  039%=      5-min Rain = 0
KTUR 130715Z 20013G19KT 02/M11 A3011 RMK A01 T00201106  RH  039%=      5-min Rain = 0
KTUR 130720Z 20013G18KT 02/M11 A3011 RMK A01 T00191106  RH  039%=      5-min Rain = 0
KTUR 130725Z 20012KT 02/M11 A3011 RMK A01 T00191106  RH  039%=      5-min Rain = 0
KTUR 130730Z 20012KT 02/M11 A3011 RMK A01 T00181106  RH  040%=      5-min Rain = 0
KTUR 130735Z 20012KT 02/M11 A3011 RMK A01 T00181106  RH  040%=      5-min Rain = 0
KTUR 130740Z 20011KT 02/M11 A3011 RMK A01 T00181106  RH  040%=      5-min Rain = 0
KTUR 130745Z 20010KT 02/M11 A3011 RMK A01 T00161105  RH  040%=      5-min Rain = 0
KTUR 130750Z 20010KT 02/M11 A3011 RMK A01 T00161105  RH  041%=      5-min Rain = 0
KTUR 130755Z 20009G14KT 02/M11 A3011 RMK A01 T00151105  RH  041%=      5-min Rain = 0
KTUR 130800Z 20010KT 02/M11 A301 RMK A01 T00171107  RH  040%=      5-min Rain = 0
KTUR 130805Z 20009KT 02/M11 A301 RMK A01 T00151106  RH  041%=      5-min Rain = 0
KTUR 130810Z 19009KT 01/M11 A301 RMK A01 T00131105  RH  042%=      5-min Rain = 0
KTUR 130815Z 19009KT 01/M10 A3011 RMK A01 T00121104  RH  042%=      5-min Rain = 0
KTUR 130820Z 18008KT 01/M10 A3011 RMK A01 T00101104  RH  043%=      5-min Rain = 0
KTUR 130825Z 18009KT 01/M10 A3011 RMK A01 T00101104  RH  043%=      5-min Rain = 0
KTUR 130830Z 19010KT 01/M10 A3011 RMK A01 T00111104  RH  043%=      5-min Rain = 0
KTUR 130835Z 19010KT 01/M10 A301 RMK A01 T00101103  RH  043%=      5-min Rain = 0
KTUR 130840Z 19010KT 01/M10 A301 RMK A01 T00111104  RH  043%=      5-min Rain = 0
KTUR 130845Z 19011KT 01/M10 A3009 RMK A01 T00111104  RH  043%=      5-min Rain = 0
KTUR 130850Z 19011KT 01/M11 A3009 RMK A01 T00111105  RH  042%=      5-min Rain = 0
KTUR 130855Z 19011KT 01/M11 A3008 RMK A01 T00111105  RH  042%=      5-min Rain = 0
KTUR 130900Z 18013KT 01/M11 A3008 RMK A01 T00111106  RH  042%=      5-min Rain = 0
KTUR 130905Z 18012G17KT 01/M11 A3007 RMK A01 T00121106  RH  041%=      5-min Rain = 0
KTUR 130910Z 18012KT 01/M10 A3007 RMK A01 T00091104  RH  043%=      5-min Rain = 0
KTUR 130915Z 19012KT 01/M10 A3007 RMK A01 T00091103  RH  044%=      5-min Rain = 0
KTUR 130920Z 18013KT 01/M10 A3006 RMK A01 T00091103  RH  043%=      5-min Rain = 0
KTUR 130925Z 19015KT 01/M10 A3005 RMK A01 T00111103  RH  043%=      5-min Rain = 0
KTUR 130930Z 19015KT 01/M10 A3005 RMK A01 T00111102  RH  043%=      5-min Rain = 0
KTUR 130935Z 19014KT 01/M10 A3005 RMK A01 T00101101  RH  044%=      5-min Rain = 0
KTUR 130940Z 19014KT 01/M10 A3004 RMK A01 T00091100  RH  045%=      5-min Rain = 0
KTUR 130945Z 19014KT 01/M10 A3004 RMK A01 T00081099  RH  045%=      5-min Rain = 0
KTUR 130950Z 19014KT 01/M10 A3004 RMK A01 T00081098  RH  045%=      5-min Rain = 0
KTUR 130955Z 19014KT 01/M10 A3004 RMK A01 T00091098  RH  045%=      5-min Rain = 0
KTUR 131000Z 19013KT 01/M10 A3003 RMK A01 T00071097  RH  046%=      5-min Rain = 0
KTUR 131005Z 19015KT 01/M10 A3003 RMK A01 T00081096  RH  047%=      5-min Rain = 0
KTUR 131010Z 19016KT 01/M10 A3003 RMK A01 T00091095  RH  046%=      5-min Rain = 0
KTUR 131015Z 19016KT 01/M10 A3003 RMK A01 T00091095  RH  046%=      5-min Rain = 0
KTUR 131020Z 19016G21KT 01/M09 A3003 RMK A01 T00111094  RH  046%=      5-min Rain = 0
KTUR 131025Z 19015KT 01/M09 A3003 RMK A01 T00111094  RH  046%=      5-min Rain = 0
KTUR 131030Z 18015KT 01/M09 A3003 RMK A01 T00111094  RH  046%=      5-min Rain = 0
KTUR 131035Z 19014KT 01/M09 A3003 RMK A01 T00091094  RH  047%=      5-min Rain = 0
KTUR 131040Z 19015KT 01/M09 A3003 RMK A01 T00081093  RH  047%=      5-min Rain = 0
KTUR 131045Z 19016KT 01/M09 A3003 RMK A01 T00081093  RH  047%=      5-min Rain = 0
KTUR 131050Z 19016KT 01/M09 A3002 RMK A01 T00081092  RH  048%=      5-min Rain = 0
KTUR 131055Z 20017KT 01/M09 A3002 RMK A01 T00081091  RH  048%=      5-min Rain = 0
KTUR 131100Z 20018KT 01/M09 A3002 RMK A01 T00111090  RH  048%=      5-min Rain = 0
KTUR 131105Z 20018KT 01/M09 A3002 RMK A01 T00111089  RH  048%=      5-min Rain = 0
KTUR 131110Z 20017KT 01/M09 A3002 RMK A01 T00111087  RH  048%=      5-min Rain = 0
KTUR 131115Z 20016KT 01/M09 A3001 RMK A01 T00111086  RH  049%=      5-min Rain = 0
KTUR 131120Z 19014KT 01/M09 A3001 RMK A01 T00091085  RH  050%=      5-min Rain = 0
KTUR 131125Z 19014KT 01/M08 A3001 RMK A01 T00081084  RH  051%=      5-min Rain = 0
KTUR 131130Z 19014KT 01/M08 A3001 RMK A01 T00081083  RH  051%=      5-min Rain = 0
KTUR 131135Z 19014KT 01/M08 A3001 RMK A01 T00091082  RH  051%=      5-min Rain = 0
KTUR 131140Z 20014KT 01/M08 A30 RMK A01 T00101081  RH  051%=      5-min Rain = 0
KTUR 131145Z 20014KT 01/M08 A30 RMK A01 T00101080  RH  052%=      5-min Rain = 0
KTUR 131150Z 20014KT 01/M08 A30 RMK A01 T00101079  RH  052%=      5-min Rain = 0
KTUR 131155Z 21015KT 01/M08 A2999 RMK A01 T00101078  RH  052%=      5-min Rain = 0
KTUR 131200Z 21015KT 01/M08 A2999 RMK A01 T00111077  RH  052%=      5-min Rain = 0
KTUR 131205Z 20016KT 01/M08 A2999 RMK A01 T00121076  RH  053%=      5-min Rain = 0
KTUR 131210Z 20014G19KT 01/M08 A2999 RMK A01 T00121075  RH  053%=      5-min Rain = 0
KTUR 131215Z 21013KT 01/M07 A30 RMK A01 T00121073  RH  054%=      5-min Rain = 0
KTUR 131220Z 21012KT 01/M07 A30 RMK A01 T00121072  RH  054%=      5-min Rain = 0
KTUR 131225Z 21011KT 01/M07 A30 RMK A01 T00131071  RH  054%=      5-min Rain = 0
KTUR 131230Z 20011KT 01/M07 A30 RMK A01 T00141070  RH  054%=      5-min Rain = 0
KTUR 131235Z 20011G16KT 02/M07 A30 RMK A01 T00151069  RH  054%=      5-min Rain = 0
KTUR 131240Z 20012KT 02/M07 A30 RMK A01 T00151068  RH  055%=      5-min Rain = 0
KTUR 131245Z 19013KT 02/M07 A30 RMK A01 T00151067  RH  055%=      5-min Rain = 0
KTUR 131250Z 19015G20KT 02/M07 A2999 RMK A01 T00161066  RH  055%=      5-min Rain = 0
KTUR 131255Z 19014G19KT 02/M07 A30 RMK A01 T00161065  RH  056%=      5-min Rain = 0
KTUR 131300Z 19014G19KT 02/M07 A30 RMK A01 T00161065  RH  056%=      5-min Rain = 0
KTUR 131305Z 18013KT 02/M06 A30 RMK A01 T00151064  RH  056%=      5-min Rain = 0
KTUR 131310Z 18013KT 02/M06 A2999 RMK A01 T00151064  RH  056%=      5-min Rain = 0
KTUR 131315Z 19013KT 02/M06 A2999 RMK A01 T00161064  RH  056%=      5-min Rain = 0
KTUR 131320Z 18014KT 02/M06 A2999 RMK A01 T00151063  RH  057%=      5-min Rain = 0
KTUR 131325Z 18013KT 02/M06 A2999 RMK A01 T00161063  RH  056%=      5-min Rain = 0
KTUR 131330Z 18013KT 02/M06 A2999 RMK A01 T00161063  RH  056%=      5-min Rain = 0
KTUR 131335Z 18012G17KT 02/M06 A2999 RMK A01 T00161063  RH  056%=      5-min Rain = 0
KTUR 131340Z 19011KT 02/M06 A2999 RMK A01 T00161063  RH  056%=      5-min Rain = 0
KTUR 131345Z 19012KT 02/M06 A2998 RMK A01 T00151063  RH  057%=      5-min Rain = 0
KTUR 131350Z 19011KT 01/M06 A2998 RMK A01 T00141063  RH  057%=      5-min Rain = 0
KTUR 131355Z 19010KT 01/M06 A2998 RMK A01 T00141062  RH  058%=      5-min Rain = 0
KTUR 131400Z 19010KT 02/M06 A2998 RMK A01 T00161061  RH  057%=      5-min Rain = 0
KTUR 131405Z 19009KT 02/M06 A2999 RMK A01 T00191060  RH  056%=      5-min Rain = 0
KTUR 131410Z 20009KT 02/M06 A2999 RMK A01 T00221059  RH  056%=      5-min Rain = 0
KTUR 131415Z 20010KT 02/M06 A2999 RMK A01 T00231059  RH  055%=      5-min Rain = 0
KTUR 131420Z 20011KT 03/M06 A2998 RMK A01 T00261058  RH  055%=      5-min Rain = 0
KTUR 131425Z 20011KT 03/M06 A2998 RMK A01 T00301057  RH  053%=      5-min Rain = 0
KTUR 131430Z 20012KT 03/M06 A2998 RMK A01 T00341056  RH  052%=      5-min Rain = 0
KTUR 131435Z 19012KT 04/M06 A2998 RMK A01 T00371056  RH  051%=      5-min Rain = 0
KTUR 131440Z 19014KT 04/M06 A2998 RMK A01 T00391056  RH  051%=      5-min Rain = 0
KTUR 131445Z 20014G19KT 04/M06 A2998 RMK A01 T00401056  RH  050%=      5-min Rain = 0
KTUR 131450Z 20013KT 04/M05 A2998 RMK A01 T00421054  RH  050%=      5-min Rain = 0
KTUR 131455Z 20015KT 05/M05 A2998 RMK A01 T00461053  RH  049%=      5-min Rain = 0
KTUR 131500Z 20015KT 05/M05 A2998 RMK A01 T00491053  RH  048%=      5-min Rain = 0
KTUR 131505Z 20015KT 05/M05 A2998 RMK A01 T00511053  RH  048%=      5-min Rain = 0
KTUR 131510Z 20015KT 05/M05 A2998 RMK A01 T00541051  RH  047%=      5-min Rain = 0
KTUR 131515Z 21013KT 06/M05 A2998 RMK A01 T00581050  RH  046%=      5-min Rain = 0
KTUR 131520Z 21014KT 06/M05 A2998 RMK A01 T00621049  RH  045%=      5-min Rain = 0
KTUR 131525Z 21014KT 06/M05 A2998 RMK A01 T00631049  RH  045%=      5-min Rain = 0
KTUR 131530Z 20015G20KT 07/M05 A2998 RMK A01 T00651048  RH  045%=      5-min Rain = 0
KTUR 131535Z 20013KT 07/M05 A2998 RMK A01 T00681046  RH  045%=      5-min Rain = 0
KTUR 131540Z 20013KT 07/M05 A2998 RMK A01 T00711046  RH  044%=      5-min Rain = 0
KTUR 131545Z 20012KT 07/M04 A2998 RMK A01 T00741043  RH  043%=      5-min Rain = 0
KTUR 131550Z 20014KT 08/M04 A2997 RMK A01 T00761042  RH  043%=      5-min Rain = 0
KTUR 131555Z 20012KT 08/M04 A2998 RMK A01 T00841038  RH  042%=      5-min Rain = 0
KTUR 131600Z 21014KT 08/M04 A2997 RMK A01 T00841038  RH  042%=      5-min Rain = 0
KTUR 131605Z 20013KT 09/M04 A2998 RMK A01 T00891035  RH  042%=      5-min Rain = 0
KTUR 131610Z 20014KT 09/M04 A2997 RMK A01 T00901035  RH  042%=      5-min Rain = 0
KTUR 131615Z 20015KT 09/M03 A2997 RMK A01 T00931034  RH  041%=      5-min Rain = 0
KTUR 131620Z 20014KT 09/M03 A2997 RMK A01 T00931033  RH  041%=      5-min Rain = 0
KTUR 131625Z 20013KT 10/M03 A2997 RMK A01 T00961031  RH  041%=      5-min Rain = 0
KTUR 131630Z 19011G16KT 10/M03 A2997 RMK A01 T00971031  RH  041%=      5-min Rain = 0
KTUR 131635Z 20011KT 10/M03 A2997 RMK A01 T00991030  RH  041%=      5-min Rain = 0
KTUR 131640Z 20010KT 10/M03 A2997 RMK A01 T01011030  RH  040%=      5-min Rain = 0
KTUR 131645Z 21010KT 11/M03 A2997 RMK A01 T01051028  RH  040%=      5-min Rain = 0
KTUR 131650Z 20010KT 11/M03 A2997 RMK A01 T01071027  RH  039%=      5-min Rain = 0
KTUR 131655Z 19010KT 11/M03 A2997 RMK A01 T01071027  RH  039%=      5-min Rain = 0
KTUR 131700Z 18010KT 11/M03 A2996 RMK A01 T01101026  RH  039%=      5-min Rain = 0
KTUR 131705Z 20009KT 11/M03 A2996 RMK A01 T01141025  RH  038%=      5-min Rain = 0
KTUR 131710Z 20010G15KT 12/M02 A2996 RMK A01 T01151024  RH  038%=      5-min Rain = 0
KTUR 131715Z 21009G14KT 12/M02 A2996 RMK A01 T01171023  RH  038%=      5-min Rain = 0
KTUR 131720Z 20010G17KT 12/M02 A2996 RMK A01 T01191023  RH  037%=      5-min Rain = 0
KTUR 131725Z 20008KT 12/M02 A2995 RMK A01 T01231022  RH  037%=      5-min Rain = 0
KTUR 131730Z 18008KT 12/M02 A2995 RMK A01 T01221023  RH  037%=      5-min Rain = 0
KTUR 131735Z 20007G14KT 13/M02 A2995 RMK A01 T01271020  RH  036%=      5-min Rain = 0
KTUR 131740Z 20010KT 13/M02 A2995 RMK A01 T01291020  RH  036%=      5-min Rain = 0
KTUR 131745Z 20008KT 13/M02 A2994 RMK A01 T01311019  RH  036%=      5-min Rain = 0
KTUR 131750Z 19009KT 13/M02 A2994 RMK A01 T01331018  RH  035%=      5-min Rain = 0
KTUR 131755Z 18009KT 13/M02 A2994 RMK A01 T01331018  RH  035%=      5-min Rain = 0
KTUR 131800Z 18009KT 14/M02 A2994 RMK A01 T01381017  RH  035%=      5-min Rain = 0
KTUR 131805Z 18009KT 14/M02 A2993 RMK A01 T01371017  RH  035%=      5-min Rain = 0
KTUR 131810Z 19009G14KT 14/M02 A2993 RMK A01 T01421015  RH  034%=      5-min Rain = 0
KTUR 131815Z 19011G16KT 14/M02 A2993 RMK A01 T01431015  RH  034%=      5-min Rain = 0
KTUR 131820Z 18011KT 14/M01 A2992 RMK A01 T01441014  RH  034%=      5-min Rain = 0
KTUR 131825Z 19011G17KT 15/M01 A2992 RMK A01 T01491013  RH  033%=      5-min Rain = 0
KTUR 131830Z 19012KT 15/M01 A2992 RMK A01 T01491012  RH  033%=      5-min Rain = 0
KTUR 131835Z 21011KT 15/M02 A2992 RMK A01 T01511015  RH  032%=      5-min Rain = 0
KTUR 131840Z 21012KT 15/M02 A2991 RMK A01 T01521015  RH  032%=      5-min Rain = 0
KTUR 131845Z 19012KT 15/M01 A2991 RMK A01 T01531013  RH  032%=      5-min Rain = 0
KTUR 131850Z 19011KT 16/M01 A2991 RMK A01 T01561013  RH  032%=      5-min Rain = 0
KTUR 131855Z 18011G16KT 16/M01 A299 RMK A01 T01591013  RH  031%=      5-min Rain = 0
KTUR 131900Z 18012G18KT 16/M01 A2989 RMK A01 T01581014  RH  031%=      5-min Rain = 0
KTUR 131905Z 20011KT 16/M02 A2989 RMK A01 T01601015  RH  031%=      5-min Rain = 0
KTUR 131910Z 18012KT 16/M02 A2988 RMK A01 T01611015  RH  030%=      5-min Rain = 0
KTUR 131915Z 18012KT 16/M02 A2988 RMK A01 T01621015  RH  030%=      5-min Rain = 0
KTUR 131920Z 19012G18KT 16/M02 A2988 RMK A01 T01631015  RH  030%=      5-min Rain = 0
KTUR 131925Z 20010G16KT 17/M02 A2988 RMK A01 T01661015  RH  029%=      5-min Rain = 0
KTUR 131930Z 20012KT 17/M02 A2987 RMK A01 T01661016  RH  029%=      5-min Rain = 0
KTUR 131935Z 20012G17KT 17/M02 A2987 RMK A01 T01681016  RH  029%=      5-min Rain = 0
KTUR 131940Z 20010G15KT 17/M02 A2987 RMK A01 T01701015  RH  029%=      5-min Rain = 0
KTUR 131945Z 19009KT 17/M02 A2987 RMK A01 T01691015  RH  029%=      5-min Rain = 0
KTUR 131950Z 19010G15KT 17/M02 A2987 RMK A01 T01741015  RH  028%=      5-min Rain = 0
KTUR 131955Z 20010G15KT 17/M02 A2987 RMK A01 T01741018  RH  027%=      5-min Rain = 0
KTUR 132000Z 19010KT 18/M02 A2987 RMK A01 T01751016  RH  028%=      5-min Rain = 0
KTUR 132005Z 21009G14KT 18/M02 A2987 RMK A01 T01751019  RH  027%=      5-min Rain = 0
KTUR 132010Z 19009KT 18/M02 A2986 RMK A01 T01781017  RH  027%=      5-min Rain = 0
KTUR 132015Z 19008G13KT 18/M02 A2987 RMK A01 T01801017  RH  026%=      5-min Rain = 0
KTUR 132020Z 19008KT 18/M02 A2987 RMK A01 T01811018  RH  026%=      5-min Rain = 0
KTUR 132025Z 19009KT 18/M02 A2987 RMK A01 T01811018  RH  026%=      5-min Rain = 0
KTUR 132030Z 20008KT 18/M02 A2987 RMK A01 T01811019  RH  026%=      5-min Rain = 0
KTUR 132035Z 17007KT 18/M02 A2986 RMK A01 T01821018  RH  026%=      5-min Rain = 0
KTUR 132040Z 19007G13KT 18/M02 A2986 RMK A01 T01841019  RH  025%=      5-min Rain = 0
KTUR 132045Z 20009KT 19/M02 A2986 RMK A01 T01891020  RH  025%=      5-min Rain = 0
KTUR 132050Z 18008KT 19/M02 A2986 RMK A01 T01861019  RH  025%=      5-min Rain = 0
KTUR 132055Z 17007KT 19/M02 A2986 RMK A01 T01871020  RH  025%=      5-min Rain = 0
KTUR 132100Z 19007KT 19/M02 A2986 RMK A01 T01921018  RH  024%=      5-min Rain = 0
KTUR 132105Z 20006KT 19/M02 A2986 RMK A01 T01901021  RH  024%=      5-min Rain = 0
KTUR 132110Z 16007KT 19/M02 A2986 RMK A01 T01911018  RH  025%=      5-min Rain = 0
KTUR 132115Z 17008KT 19/M02 A2986 RMK A01 T01921017  RH  025%=      5-min Rain = 0
KTUR 132120Z 15008KT 19/M02 A2986 RMK A01 T01901017  RH  025%=      5-min Rain = 0
KTUR 132125Z 17009KT 19/M02 A2986 RMK A01 T01911016  RH  025%=      5-min Rain = 0
KTUR 132130Z 17007KT 19/M02 A2986 RMK A01 T01901018  RH  025%=      5-min Rain = 0
KTUR 132135Z 16008KT 19/M02 A2987 RMK A01 T01931016  RH  025%=      5-min Rain = 0
KTUR 132140Z 15007KT 19/M02 A2987 RMK A01 T01911017  RH  025%=      5-min Rain = 0
KTUR 132145Z 16008KT 19/M02 A2987 RMK A01 T01921016  RH  025%=      5-min Rain = 0
KTUR 132150Z 16007KT 19/M02 A2987 RMK A01 T01911015  RH  025%=      5-min Rain = 0
KTUR 132155Z 13006KT 19/M02 A2987 RMK A01 T01921015  RH  025%=      5-min Rain = 0
KTUR 132200Z 12007KT 19/M02 A2987 RMK A01 T01901015  RH  025%=      5-min Rain = 0
KTUR 132205Z 12006KT 19/M02 A2987 RMK A01 T01901015  RH  025%=      5-min Rain = 0
KTUR 132210Z 12006KT 19/M01 A2987 RMK A01 T01901014  RH  025%=      5-min Rain = 0
KTUR 132215Z 12005KT 19/M01 A2987 RMK A01 T01921014  RH  025%=      5-min Rain = 0
KTUR 132220Z 14005KT 19/M01 A2988 RMK A01 T01931014  RH  025%=      5-min Rain = 0
KTUR 132225Z 12006KT 19/M01 A2988 RMK A01 T01911013  RH  025%=      5-min Rain = 0
KTUR 132230Z 10007KT 19/M01 A2988 RMK A01 T01871007  RH  027%=      5-min Rain = 0
KTUR 132235Z 09008KT 18/00 A2988 RMK A01 T01810001  RH  030%=      5-min Rain = 0
KTUR 132240Z 10008KT 18/00 A2989 RMK A01 T01790003  RH  031%=      5-min Rain = 0
KTUR 132245Z 10007KT 18/01 A2989 RMK A01 T01770005  RH  032%=      5-min Rain = 0
KTUR 132250Z 10008KT 17/01 A2989 RMK A01 T01720008  RH  033%=      5-min Rain = 0
KTUR 132255Z 12009KT 17/01 A299 RMK A01 T01710009  RH  034%=      5-min Rain = 0
KTUR 132300Z 12008KT 17/01 A299 RMK A01 T01680009  RH  035%=      5-min Rain = 0
KTUR 132305Z 12007KT 17/01 A299 RMK A01 T01660010  RH  035%=      5-min Rain = 0
KTUR 132310Z 12007KT 16/01 A2991 RMK A01 T01620010  RH  036%=      5-min Rain = 0
KTUR 132315Z 11007KT 16/01 A2991 RMK A01 T01590011  RH  037%=      5-min Rain = 0
KTUR 132320Z 11007KT 16/01 A2991 RMK A01 T01550011  RH  038%=      5-min Rain = 0
KTUR 132325Z 11007KT 15/01 A2991 RMK A01 T01500011  RH  039%=      5-min Rain = 0
KTUR 132330Z 11007KT 15/01 A2991 RMK A01 T01460011  RH  040%=      5-min Rain = 0
KTUR 132335Z 12007KT 14/01 A2991 RMK A01 T01410010  RH  041%=      5-min Rain = 0
KTUR 132340Z 12006KT 14/01 A2991 RMK A01 T01360010  RH  043%=      5-min Rain = 0
KTUR 132345Z 11005KT 13/01 A2992 RMK A01 T01310009  RH  044%=      5-min Rain = 0
KTUR 132350Z 10006KT 13/01 A2992 RMK A01 T01250009  RH  046%=      5-min Rain = 0
KTUR 132355Z 10007KT 13/01 A2992 RMK A01 T01250009  RH  046%=      5-min Rain = 0
KTUR 140000Z 11007KT 12/01 A2992 RMK A01 T01220009  RH  046%=      5-min Rain = 0
KTUR 140005Z 12007KT 12/01 A2993 RMK A01 T01230009  RH  046%=      5-min Rain = 0
KTUR 140010Z 11005KT 12/01 A2993 RMK A01 T01220009  RH  047%=      5-min Rain = 0
KTUR 140015Z 08005KT 12/01 A2993 RMK A01 T01170009  RH  048%=      5-min Rain = 0
KTUR 140020Z 10005KT 12/01 A2994 RMK A01 T01200008  RH  047%=      5-min Rain = 0
KTUR 140025Z 09005KT 12/01 A2994 RMK A01 T01190008  RH  047%=      5-min Rain = 0
KTUR 140030Z 08005KT 12/01 A2994 RMK A01 T01190008  RH  047%=      5-min Rain = 0
KTUR 140035Z 08006KT 12/01 A2995 RMK A01 T01160008  RH  048%=      5-min Rain = 0
KTUR 140040Z 07006KT 11/01 A2995 RMK A01 T01120008  RH  049%=      5-min Rain = 0
KTUR 140045Z 07006KT 11/01 A2995 RMK A01 T01080007  RH  050%=      5-min Rain = 0
KTUR 140050Z 06006KT 11/01 A2996 RMK A01 T01070007  RH  050%=      5-min Rain = 0
KTUR 140055Z 07008KT 10/01 A2996 RMK A01 T01020007  RH  052%=      5-min Rain = 0
KTUR 140100Z 07007KT 10/01 A2997 RMK A01 T01010007  RH  053%=      5-min Rain = 0
KTUR 140105Z 07007KT 10/01 A2997 RMK A01 T01000006  RH  053%=      5-min Rain = 0
KTUR 140110Z 07007KT 10/01 A2997 RMK A01 T00990006  RH  053%=      5-min Rain = 0
KTUR 140115Z 07007KT 10/01 A2997 RMK A01 T00970006  RH  054%=      5-min Rain = 0
KTUR 140120Z 07008KT 10/01 A2997 RMK A01 T00950006  RH  054%=      5-min Rain = 0
KTUR 140125Z 07007KT 09/01 A2998 RMK A01 T00940005  RH  055%=      5-min Rain = 0
KTUR 140130Z 07007KT 09/01 A2998 RMK A01 T00900005  RH  056%=      5-min Rain = 0
KTUR 140135Z 08008KT 09/01 A2998 RMK A01 T00910005  RH  055%=      5-min Rain = 0
KTUR 140140Z 07008KT 09/01 A2998 RMK A01 T00890005  RH  056%=      5-min Rain = 0
KTUR 140145Z 09008KT 09/01 A2998 RMK A01 T00880005  RH  057%=      5-min Rain = 0
KTUR 140150Z 06007KT 09/00 A2999 RMK A01 T00850004  RH  057%=      5-min Rain = 0
KTUR 140155Z 06006KT 08/00 A2999 RMK A01 T00800004  RH  059%=      5-min Rain = 0
KTUR 140200Z 06006KT 08/00 A2999 RMK A01 T00800003  RH  059%=      5-min Rain = 0
KTUR 140205Z 07007KT 08/00 A2999 RMK A01 T00810003  RH  059%=      5-min Rain = 0
KTUR 140210Z 06005KT 08/00 A2999 RMK A01 T00820003  RH  058%=      5-min Rain = 0
KTUR 140215Z 05005KT 08/00 A2999 RMK A01 T00780002  RH  059%=      5-min Rain = 0
KTUR 140220Z 06006KT 08/00 A30 RMK A01 T00770002  RH  060%=      5-min Rain = 0
KTUR 140225Z 07006KT 08/00 A30 RMK A01 T00750002  RH  061%=      5-min Rain = 0
KTUR 140230Z 07006KT 07/00 A30 RMK A01 T00730002  RH  061%=      5-min Rain = 0
KTUR 140235Z 06006KT 07/00 A30 RMK A01 T00710002  RH  062%=      5-min Rain = 0
KTUR 140240Z 06006KT 07/00 A30 RMK A01 T00690001  RH  063%=      5-min Rain = 0
KTUR 140245Z 06005KT 07/00 A3001 RMK A01 T00690001  RH  063%=      5-min Rain = 0
KTUR 140250Z 05005KT 07/00 A3001 RMK A01 T00690000  RH  062%=      5-min Rain = 0
KTUR 140255Z 06006KT 07/00 A3001 RMK A01 T00660000  RH  064%=      5-min Rain = 0
KTUR 140300Z 05007KT 06/M00 A3001 RMK A01 T00601001  RH  066%=      5-min Rain = 0
KTUR 140305Z 05007KT 06/M00 A3002 RMK A01 T00581001  RH  067%=      5-min Rain = 0
KTUR 140310Z 05006KT 06/M00 A3002 RMK A01 T00581001  RH  067%=      5-min Rain = 0
KTUR 140315Z 03006KT 06/M00 A3002 RMK A01 T00591001  RH  066%=      5-min Rain = 0
KTUR 140320Z 01003KT 06/M00 A3003 RMK A01 T00561003  RH  067%=      5-min Rain = 0
KTUR 140325Z 02004KT 05/M00 A3003 RMK A01 T00521003  RH  068%=      5-min Rain = 0
KTUR 140330Z 01004KT 05/M01 A3003 RMK A01 T00511005  RH  068%=      5-min Rain = 0
KTUR 140335Z 36004KT 05/M01 A3004 RMK A01 T00491005  RH  068%=      5-min Rain = 0
KTUR 140340Z 34004KT 05/M01 A3004 RMK A01 T00461006  RH  070%=      5-min Rain = 0
KTUR 140345Z 32006KT 05/M01 A3005 RMK A01 T00451006  RH  071%=      5-min Rain = 0
KTUR 140350Z 32006KT 04/M01 A3005 RMK A01 T00431006  RH  071%=      5-min Rain = 0
KTUR 140355Z 31006KT 04/M01 A3005 RMK A01 T00431005  RH  071%=      5-min Rain = 0
KTUR 140400Z 31007KT 04/M01 A3005 RMK A01 T00431005  RH  072%=      5-min Rain = 0
KTUR 140405Z 31007KT 05/M00 A3005 RMK A01 T00451004  RH  071%=      5-min Rain = 0
KTUR 140410Z 31008KT 05/M00 A3006 RMK A01 T00451004  RH  072%=      5-min Rain = 0
KTUR 140415Z 31008KT 05/M00 A3006 RMK A01 T00451003  RH  072%=      5-min Rain = 0
KTUR 140420Z 31008KT 04/M00 A3006 RMK A01 T00431004  RH  072%=      5-min Rain = 0
KTUR 140425Z 31008KT 04/M01 A3007 RMK A01 T00431005  RH  072%=      5-min Rain = 0
KTUR 140430Z 31008KT 04/M01 A3007 RMK A01 T00411006  RH  072%=      5-min Rain = 0
KTUR 140435Z 32009KT 04/M01 A3007 RMK A01 T00391007  RH  073%=      5-min Rain = 0
KTUR 140440Z 32009KT 04/M01 A3007 RMK A01 T00391008  RH  073%=      5-min Rain = 0
KTUR 140445Z 32009KT 04/M01 A3007 RMK A01 T00391008  RH  072%=      5-min Rain = 0
KTUR 140450Z 32009KT 04/M01 A3007 RMK A01 T00381009  RH  072%=      5-min Rain = 0
KTUR 140455Z 32009KT 04/M01 A3008 RMK A01 T00361009  RH  073%=      5-min Rain = 0
KTUR 140500Z 32009KT 04/M01 A3008 RMK A01 T00361009  RH  073%=      5-min Rain = 0
KTUR 140505Z 32009KT 04/M01 A3008 RMK A01 T00381010  RH  072%=      5-min Rain = 0
KTUR 140510Z 31008KT 04/M01 A3008 RMK A01 T00361010  RH  073%=      5-min Rain = 0
KTUR 140515Z 31009KT 03/M01 A3008 RMK A01 T00321010  RH  074%=      5-min Rain = 0
KTUR 140520Z 31009KT 03/M01 A3008 RMK A01 T00301010  RH  076%=      5-min Rain = 0
KTUR 140525Z 31009KT 03/M01 A3008 RMK A01 T00291011  RH  076%=      5-min Rain = 0
KTUR 140530Z 31009KT 03/M01 A3008 RMK A01 T00281012  RH  076%=      5-min Rain = 0
KTUR 140535Z 32009KT 03/M01 A3009 RMK A01 T00281013  RH  075%=      5-min Rain = 0
KTUR 140540Z 31009KT 03/M01 A3009 RMK A01 T00311013  RH  074%=      5-min Rain = 0
KTUR 140545Z 31009KT 03/M01 A3009 RMK A01 T00311012  RH  074%=      5-min Rain = 0
KTUR 140550Z 31009KT 03/M01 A3009 RMK A01 T00331012  RH  073%=      5-min Rain = 0
KTUR 140555Z 32009KT 03/M01 A3009 RMK A01 T00311013  RH  074%=      5-min Rain = 0

Page generated in 0.0092 seconds.